createdAt,value
2019-03-31T00:01:07.574Z,45.33
2019-03-31T00:03:25.659Z,46.80
2019-03-31T00:05:54.128Z,48.70
2019-03-31T00:08:22.628Z,49.17
2019-03-31T00:10:51.096Z,52.50
2019-03-31T00:13:21.296Z,53.73
2019-03-31T00:15:49.785Z,51.37
2019-03-31T00:18:18.259Z,53.00
2019-03-31T00:20:46.720Z,54.00
2019-03-31T00:23:15.277Z,52.20
2019-03-31T00:25:45.449Z,52.33
2019-03-31T00:28:14.003Z,47.57
2019-03-31T00:30:42.514Z,48.93
2019-03-31T00:33:11.026Z,40.27
2019-03-31T00:35:39.490Z,51.53
2019-03-31T00:38:08.102Z,50.23
2019-03-31T00:40:36.605Z,48.30
2019-03-31T00:43:05.140Z,53.23
2019-03-31T00:45:33.728Z,49.57
2019-03-31T00:48:02.297Z,51.77
2019-03-31T00:50:30.868Z,39.93
2019-03-31T00:52:59.372Z,55.70
2019-03-31T00:55:27.832Z,53.83
2019-03-31T00:57:56.300Z,50.37
2019-03-31T01:00:43.523Z,36.43
2019-03-31T01:03:12.196Z,48.13
2019-03-31T01:05:42.498Z,51.00
2019-03-31T01:08:11.840Z,48.97
2019-03-31T01:10:41.724Z,41.80
2019-03-31T01:13:10.564Z,53.93
2019-03-31T01:15:39.481Z,50.90
2019-03-31T01:18:08.839Z,51.53
2019-03-31T01:20:37.375Z,48.23
2019-03-31T01:23:06.789Z,43.43
2019-03-31T01:25:35.727Z,53.50
2019-03-31T01:28:04.548Z,57.00
2019-03-31T01:30:33.113Z,54.97
2019-03-31T01:33:01.716Z,54.30
2019-03-31T01:35:31.690Z,47.70
2019-03-31T01:38:00.227Z,51.10
2019-03-31T01:40:28.940Z,37.87
2019-03-31T01:42:57.474Z,53.03
2019-03-31T01:45:26.044Z,50.63
2019-03-31T01:47:54.580Z,53.77
2019-03-31T01:50:23.149Z,45.77
2019-03-31T01:52:51.707Z,53.43
2019-03-31T01:55:20.174Z,55.73
2019-03-31T01:57:48.667Z,55.57
2019-03-31T02:00:25.293Z,53.40
2019-03-31T02:02:53.752Z,53.43
2019-03-31T02:05:22.285Z,52.87
2019-03-31T02:07:50.819Z,50.93
2019-03-31T02:10:19.349Z,48.37
2019-03-31T02:12:47.871Z,51.23
2019-03-31T02:15:16.433Z,44.67
2019-03-31T02:17:44.979Z,52.03
2019-03-31T02:20:13.588Z,50.43
2019-03-31T02:22:42.048Z,49.73
2019-03-31T02:25:10.590Z,50.27
2019-03-31T02:27:39.340Z,45.50
2019-03-31T02:30:07.936Z,51.37
2019-03-31T02:32:36.439Z,46.63
2019-03-31T02:35:05.916Z,47.60
2019-03-31T02:37:34.471Z,46.00
2019-03-31T02:40:03.533Z,42.37
2019-03-31T02:42:32.049Z,50.57
2019-03-31T02:45:00.827Z,45.40
2019-03-31T02:47:29.424Z,45.27
2019-03-31T02:49:57.948Z,49.43
2019-03-31T02:52:26.560Z,51.50
2019-03-31T02:54:55.100Z,48.93
2019-03-31T02:57:24.531Z,30.67
2019-03-31T02:59:53.565Z,36.87
2019-03-31T03:02:40.551Z,33.20
2019-03-31T03:04:56.200Z,45.83
2019-03-31T03:07:26.601Z,54.87
2019-03-31T03:09:57.078Z,39.23
2019-03-31T03:12:27.783Z,42.23
2019-03-31T03:14:58.976Z,51.47
2019-03-31T03:17:27.476Z,47.17
2019-03-31T03:19:56.007Z,44.07
2019-03-31T03:22:24.571Z,52.83
2019-03-31T03:24:53.092Z,52.90
2019-03-31T03:27:21.660Z,53.17
2019-03-31T03:29:50.124Z,57.00
2019-03-31T03:32:18.679Z,52.67
2019-03-31T03:34:47.471Z,35.80
2019-03-31T03:37:16.134Z,55.43
2019-03-31T03:39:44.925Z,48.93
2019-03-31T03:42:15.065Z,55.33
2019-03-31T03:44:45.248Z,56.03
2019-03-31T03:47:13.782Z,54.17
2019-03-31T03:49:42.294Z,55.23
2019-03-31T03:52:10.848Z,53.43
2019-03-31T03:54:39.316Z,56.00
2019-03-31T03:57:07.847Z,52.70
2019-03-31T03:59:36.308Z,56.77
2019-03-31T04:02:04.804Z,42.57
2019-03-31T04:04:33.288Z,53.57
2019-03-31T04:07:01.758Z,32.70
2019-03-31T04:09:30.257Z,58.43
2019-03-31T04:11:58.880Z,57.17
2019-03-31T04:14:27.413Z,46.63
2019-03-31T04:16:55.909Z,49.53
2019-03-31T04:19:24.410Z,35.60
2019-03-31T04:21:53.016Z,43.17
2019-03-31T04:24:21.550Z,31.90
2019-03-31T04:26:50.099Z,51.43
2019-03-31T04:29:18.586Z,56.40
2019-03-31T04:31:47.130Z,34.07
2019-03-31T04:34:15.621Z,53.63
2019-03-31T04:36:44.087Z,32.80
2019-03-31T04:39:12.544Z,51.33
2019-03-31T04:41:41.086Z,53.30
2019-03-31T04:44:09.601Z,47.67
2019-03-31T04:46:38.065Z,42.43
2019-03-31T04:49:06.549Z,38.03
2019-03-31T04:51:36.678Z,52.90
2019-03-31T04:54:05.516Z,49.27
2019-03-31T04:56:34.028Z,54.53
2019-03-31T04:59:02.484Z,54.53
2019-03-31T05:01:31.024Z,52.13
2019-03-31T05:04:04.997Z,54.90
2019-03-31T05:06:30.427Z,49.70
2019-03-31T05:08:58.916Z,42.33
2019-03-31T05:11:27.528Z,34.30
2019-03-31T05:13:57.603Z,36.50
2019-03-31T05:16:26.069Z,45.07
2019-03-31T05:18:54.568Z,53.60
2019-03-31T05:21:23.028Z,34.97
2019-03-31T05:23:51.500Z,47.50
2019-03-31T05:26:19.989Z,49.57
2019-03-31T05:28:48.533Z,42.93
2019-03-31T05:31:17.004Z,49.10
2019-03-31T05:33:45.508Z,46.07
2019-03-31T05:36:13.988Z,44.97
2019-03-31T05:39:01.812Z,37.53
2019-03-31T05:41:30.273Z,27.27
2019-03-31T05:44:05.533Z,23.90
2019-03-31T05:46:28.962Z,32.63
2019-03-31T05:48:57.506Z,31.37
2019-03-31T05:51:26.044Z,38.23
2019-03-31T05:53:54.607Z,36.10
2019-03-31T05:56:23.064Z,36.10
2019-03-31T05:58:51.529Z,25.73
2019-03-31T06:01:20.095Z,34.50
2019-03-31T06:03:48.578Z,26.37
2019-03-31T06:06:17.188Z,32.40
2019-03-31T06:08:45.672Z,26.20
2019-03-31T06:11:14.152Z,26.53
2019-03-31T06:13:42.691Z,22.87
2019-03-31T06:16:11.425Z,29.40
2019-03-31T06:18:39.947Z,26.27
2019-03-31T06:21:08.416Z,26.77
2019-03-31T06:23:36.993Z,25.03
2019-03-31T06:26:05.538Z,24.83
2019-03-31T06:28:34.065Z,25.77
2019-03-31T06:31:02.672Z,24.87
2019-03-31T06:33:31.141Z,22.63
2019-03-31T06:35:59.611Z,27.30
2019-03-31T06:38:28.178Z,27.80
2019-03-31T06:40:57.895Z,22.40
2019-03-31T06:43:26.494Z,23.10
2019-03-31T06:45:55.028Z,21.50
2019-03-31T06:48:23.515Z,24.07
2019-03-31T06:50:51.981Z,18.67
2019-03-31T06:53:20.496Z,23.90
2019-03-31T06:55:49.134Z,24.73
2019-03-31T06:58:17.642Z,23.33
2019-03-31T07:00:46.128Z,21.67
2019-03-31T07:03:14.791Z,22.13
2019-03-31T07:05:44.923Z,25.20
2019-03-31T07:08:13.536Z,17.57
2019-03-31T07:10:42.167Z,20.70
2019-03-31T07:13:10.641Z,22.83
2019-03-31T07:15:39.140Z,24.30
2019-03-31T07:18:07.649Z,21.90
2019-03-31T07:20:36.120Z,22.47
2019-03-31T07:23:04.690Z,19.17
2019-03-31T07:25:33.260Z,15.27
2019-03-31T07:28:01.733Z,17.27
2019-03-31T07:30:30.269Z,23.27
2019-03-31T07:32:58.819Z,22.70
2019-03-31T07:35:46.753Z,20.63
2019-03-31T07:38:15.338Z,15.67
2019-03-31T07:40:44.099Z,19.50
2019-03-31T07:43:12.845Z,19.67
2019-03-31T07:45:41.642Z,20.80
2019-03-31T07:48:17.405Z,14.37
2019-03-31T07:50:50.572Z,15.90
2019-03-31T07:53:22.000Z,16.00
2019-03-31T07:55:53.774Z,15.27
2019-03-31T07:58:24.778Z,19.50
2019-03-31T08:00:56.006Z,17.23
2019-03-31T08:03:27.433Z,16.70
2019-03-31T08:05:59.210Z,18.70
2019-03-31T08:08:30.776Z,12.40
2019-03-31T08:11:02.039Z,20.50
2019-03-31T08:13:33.194Z,15.63
2019-03-31T08:16:04.256Z,19.67
2019-03-31T08:18:35.371Z,14.20
2019-03-31T08:21:06.686Z,20.63
2019-03-31T08:23:37.433Z,16.20
2019-03-31T08:26:10.041Z,21.27
2019-03-31T08:28:41.931Z,20.57
2019-03-31T08:31:13.567Z,15.70
2019-03-31T08:33:44.768Z,16.83
2019-03-31T08:36:17.210Z,17.93
2019-03-31T08:38:48.439Z,16.03
2019-03-31T08:41:19.997Z,12.13
2019-03-31T08:43:52.023Z,16.47
2019-03-31T08:46:23.246Z,15.13
2019-03-31T08:48:54.922Z,11.30
2019-03-31T08:51:26.739Z,12.20
2019-03-31T08:53:58.679Z,12.03
2019-03-31T08:56:30.240Z,12.27
2019-03-31T08:59:01.773Z,10.93
2019-03-31T09:01:32.513Z,12.57
2019-03-31T09:04:03.789Z,9.00
2019-03-31T09:06:35.271Z,10.37
2019-03-31T09:09:10.251Z,10.80
2019-03-31T09:11:41.831Z,11.50
2019-03-31T09:14:13.273Z,7.30
2019-03-31T09:16:43.879Z,9.17
2019-03-31T09:19:15.376Z,8.97
2019-03-31T09:21:49.851Z,10.63
2019-03-31T09:24:21.651Z,10.37
2019-03-31T09:26:52.852Z,11.17
2019-03-31T09:29:24.260Z,9.57
2019-03-31T09:31:55.607Z,10.03
2019-03-31T09:34:27.354Z,10.13
2019-03-31T09:36:59.025Z,11.03
2019-03-31T09:39:31.448Z,9.83
2019-03-31T09:42:03.099Z,9.93
2019-03-31T09:44:34.558Z,11.63
2019-03-31T09:47:06.346Z,9.13
2019-03-31T09:49:37.695Z,10.10
2019-03-31T09:52:08.901Z,9.17
2019-03-31T09:54:40.248Z,9.33
2019-03-31T09:57:11.999Z,9.80
2019-03-31T09:59:43.934Z,10.63
2019-03-31T10:02:15.336Z,10.17
2019-03-31T10:04:46.546Z,10.13
2019-03-31T10:07:37.394Z,9.43
2019-03-31T10:10:09.618Z,9.17
2019-03-31T10:12:41.042Z,7.93
2019-03-31T10:15:13.479Z,9.70
2019-03-31T10:17:44.353Z,9.93
2019-03-31T10:20:15.975Z,9.80
2019-03-31T10:22:47.661Z,8.47
2019-03-31T10:25:18.878Z,9.77
2019-03-31T10:27:53.423Z,9.57
2019-03-31T10:30:38.492Z,9.93
2019-03-31T10:33:10.048Z,9.57
2019-03-31T10:35:41.943Z,8.30
2019-03-31T10:38:12.983Z,9.50
2019-03-31T10:40:44.969Z,9.43
2019-03-31T10:43:16.892Z,7.60
2019-03-31T10:45:50.069Z,8.03
2019-03-31T10:48:21.422Z,8.07
2019-03-31T10:50:53.371Z,8.63
2019-03-31T10:53:25.148Z,8.57
2019-03-31T10:55:56.602Z,9.30
2019-03-31T10:58:27.903Z,8.83
2019-03-31T11:01:00.117Z,7.47
2019-03-31T11:03:33.189Z,10.03
2019-03-31T11:06:05.574Z,8.87
2019-03-31T11:08:36.785Z,11.10
2019-03-31T11:11:08.283Z,11.70
2019-03-31T11:13:40.242Z,10.67
2019-03-31T11:16:11.544Z,7.13
2019-03-31T11:18:42.565Z,9.63
2019-03-31T11:21:15.573Z,9.97
2019-03-31T11:23:46.908Z,10.30
2019-03-31T11:26:19.307Z,7.47
2019-03-31T11:28:54.459Z,10.80
2019-03-31T11:31:26.229Z,10.70
2019-03-31T11:33:57.321Z,8.17
2019-03-31T11:36:28.956Z,11.27
2019-03-31T11:39:00.623Z,7.67
2019-03-31T11:41:32.274Z,8.90
2019-03-31T11:44:03.593Z,11.03
2019-03-31T11:46:34.967Z,9.83
2019-03-31T11:49:06.301Z,9.97
2019-03-31T11:51:38.163Z,10.30
2019-03-31T11:54:09.645Z,11.43
2019-03-31T11:56:41.263Z,10.00
2019-03-31T11:59:13.100Z,12.90
2019-03-31T12:01:44.686Z,9.30
2019-03-31T12:04:14.822Z,8.50
2019-03-31T12:06:46.217Z,12.33
2019-03-31T12:09:18.630Z,11.37
2019-03-31T12:11:49.993Z,11.23
2019-03-31T12:14:21.683Z,11.07
2019-03-31T12:16:53.203Z,11.30
2019-03-31T12:19:24.546Z,11.67
2019-03-31T12:21:57.773Z,7.40
2019-03-31T12:24:30.339Z,10.63
2019-03-31T12:27:01.491Z,11.23
2019-03-31T12:29:44.681Z,11.50
2019-03-31T12:32:16.436Z,10.87
2019-03-31T12:34:48.144Z,10.90
2019-03-31T12:37:19.509Z,7.67
2019-03-31T12:39:51.425Z,11.50
2019-03-31T12:42:23.589Z,9.97
2019-03-31T12:44:54.677Z,10.87
2019-03-31T12:47:26.228Z,10.43
2019-03-31T12:49:59.087Z,8.73
2019-03-31T12:52:30.259Z,5.70
2019-03-31T12:55:02.235Z,8.90
2019-03-31T12:57:34.059Z,7.37
2019-03-31T13:00:07.068Z,7.30
2019-03-31T13:02:40.145Z,8.70
2019-03-31T13:05:12.002Z,7.37
2019-03-31T13:07:55.671Z,8.23
2019-03-31T13:10:17.124Z,6.77
2019-03-31T13:12:48.247Z,9.13
2019-03-31T13:15:20.067Z,7.20
2019-03-31T13:17:51.665Z,9.10
2019-03-31T13:20:23.065Z,6.37
2019-03-31T13:22:54.266Z,7.07
2019-03-31T13:25:24.532Z,7.80
2019-03-31T13:27:55.612Z,7.83
2019-03-31T13:30:25.530Z,6.40
2019-03-31T13:32:56.753Z,8.27
2019-03-31T13:35:28.196Z,7.73
2019-03-31T13:38:10.480Z,8.17
2019-03-31T13:40:29.295Z,8.17
2019-03-31T13:43:00.186Z,5.87
2019-03-31T13:45:31.244Z,7.37
2019-03-31T13:48:02.165Z,4.80
2019-03-31T13:50:32.420Z,7.00
2019-03-31T13:53:02.175Z,7.90
2019-03-31T13:55:33.975Z,5.23
2019-03-31T13:58:06.054Z,5.90
2019-03-31T14:00:41.034Z,4.70
2019-03-31T14:03:11.225Z,4.80
2019-03-31T14:05:42.352Z,5.80
2019-03-31T14:08:25.002Z,5.43
2019-03-31T14:10:43.890Z,7.20
2019-03-31T14:13:15.685Z,4.80
2019-03-31T14:15:47.293Z,4.13
2019-03-31T14:18:19.321Z,5.87
2019-03-31T14:20:49.832Z,6.37
2019-03-31T14:23:23.941Z,5.40
2019-03-31T14:25:55.494Z,5.73
2019-03-31T14:28:26.759Z,6.00
2019-03-31T14:30:58.913Z,4.93
2019-03-31T14:33:29.407Z,5.57
2019-03-31T14:36:00.804Z,5.80
2019-03-31T14:38:39.951Z,6.47
2019-03-31T14:41:06.114Z,5.33
2019-03-31T14:43:36.740Z,5.43
2019-03-31T14:46:08.394Z,4.90
2019-03-31T14:48:40.005Z,4.60
2019-03-31T14:51:32.134Z,5.47
2019-03-31T14:54:03.264Z,5.13
2019-03-31T14:56:34.772Z,4.77
2019-03-31T14:59:08.560Z,5.47
2019-03-31T15:01:40.185Z,4.80
2019-03-31T15:04:11.931Z,3.70
2019-03-31T15:06:42.374Z,4.80
2019-03-31T15:09:13.810Z,5.07
2019-03-31T15:11:45.597Z,3.87
2019-03-31T15:14:17.148Z,4.73
2019-03-31T15:16:48.573Z,4.73
2019-03-31T15:19:20.280Z,3.93
2019-03-31T15:21:51.670Z,4.47
2019-03-31T15:24:23.537Z,5.40
2019-03-31T15:26:55.547Z,3.73
2019-03-31T15:29:29.371Z,4.30
2019-03-31T15:32:00.638Z,4.50
2019-03-31T15:34:32.410Z,4.53
2019-03-31T15:37:04.702Z,4.30
2019-03-31T15:39:36.127Z,3.63
2019-03-31T15:42:07.861Z,3.27
2019-03-31T15:44:42.420Z,3.93
2019-03-31T15:47:13.520Z,4.47
2019-03-31T15:49:44.742Z,4.47
2019-03-31T15:52:16.817Z,4.27
2019-03-31T15:54:48.102Z,4.57
2019-03-31T15:57:20.770Z,4.70
2019-03-31T15:59:59.789Z,4.47
2019-03-31T16:02:32.020Z,4.53
2019-03-31T16:05:03.287Z,4.63
2019-03-31T16:07:34.364Z,4.73
2019-03-31T16:10:07.695Z,4.53
2019-03-31T16:12:39.098Z,4.27
2019-03-31T16:15:12.092Z,3.37
2019-03-31T16:17:43.375Z,3.93
2019-03-31T16:20:15.322Z,3.30
2019-03-31T16:22:46.623Z,3.50
2019-03-31T16:25:24.939Z,2.40
2019-03-31T16:27:54.819Z,3.27
2019-03-31T16:30:25.944Z,2.30
2019-03-31T16:32:57.130Z,3.50
2019-03-31T16:35:28.830Z,2.00
2019-03-31T16:37:58.828Z,3.20
2019-03-31T16:40:29.096Z,3.10
2019-03-31T16:43:00.363Z,3.33
2019-03-31T16:45:31.492Z,2.93
2019-03-31T16:48:03.156Z,2.87
2019-03-31T16:50:34.579Z,3.03
2019-03-31T16:53:06.298Z,2.90
2019-03-31T16:55:37.895Z,3.30
2019-03-31T16:58:09.758Z,3.37
2019-03-31T17:00:41.474Z,2.30
2019-03-31T17:03:12.817Z,3.23
2019-03-31T17:05:44.656Z,2.80
2019-03-31T17:08:16.075Z,2.90
2019-03-31T17:10:47.809Z,2.77
2019-03-31T17:13:19.329Z,3.03
2019-03-31T17:15:49.477Z,2.80
2019-03-31T17:18:20.337Z,3.53
2019-03-31T17:20:52.391Z,2.53
2019-03-31T17:23:23.268Z,3.17
2019-03-31T17:25:54.701Z,3.30
2019-03-31T17:28:26.690Z,2.63
2019-03-31T17:30:58.374Z,2.80
2019-03-31T17:33:31.210Z,2.23
2019-03-31T17:36:02.647Z,2.57
2019-03-31T17:38:34.397Z,2.43
2019-03-31T17:41:09.766Z,2.90
2019-03-31T17:43:41.429Z,2.57
2019-03-31T17:46:12.773Z,3.13
2019-03-31T17:48:44.019Z,3.17
2019-03-31T17:51:15.757Z,2.90
2019-03-31T17:53:47.683Z,2.70
2019-03-31T17:56:19.708Z,3.10
2019-03-31T17:58:51.577Z,3.03
2019-03-31T18:01:22.968Z,3.60
2019-03-31T18:03:54.767Z,3.13
2019-03-31T18:06:24.901Z,2.37
2019-03-31T18:08:57.535Z,2.27
2019-03-31T18:11:29.358Z,2.63
2019-03-31T18:14:00.982Z,2.40
2019-03-31T18:16:32.306Z,2.90
2019-03-31T18:19:04.003Z,3.23
2019-03-31T18:21:36.077Z,3.30
2019-03-31T18:24:07.408Z,2.20
2019-03-31T18:26:38.057Z,2.93
2019-03-31T18:29:10.298Z,2.67
2019-03-31T18:31:41.707Z,2.40
2019-03-31T18:34:13.091Z,2.67
2019-03-31T18:36:44.580Z,3.80
2019-03-31T18:39:15.762Z,3.63
2019-03-31T18:41:47.285Z,2.90
2019-03-31T18:44:18.610Z,3.70
2019-03-31T18:46:50.095Z,2.93
2019-03-31T18:49:20.772Z,3.30
2019-03-31T18:54:46.289Z,2.37
2019-03-31T18:57:22.322Z,3.93
2019-03-31T19:00:03.613Z,2.90
2019-03-31T19:02:39.144Z,2.63
2019-03-31T19:05:14.349Z,2.90
2019-03-31T19:07:56.388Z,2.70
2019-03-31T19:10:49.517Z,3.10
2019-03-31T19:13:19.544Z,2.70
2019-03-31T19:16:08.240Z,2.13
2019-03-31T19:18:41.519Z,2.57
2019-03-31T19:21:14.054Z,2.30
2019-03-31T19:24:05.923Z,2.30
2019-03-31T19:26:48.860Z,2.50
2019-03-31T19:29:21.038Z,2.77
2019-03-31T19:31:59.202Z,2.27
2019-03-31T19:34:44.015Z,2.33
2019-03-31T19:37:28.835Z,3.00
2019-03-31T19:40:17.599Z,2.70
2019-03-31T19:43:06.168Z,2.27
2019-03-31T19:45:38.635Z,2.30
2019-03-31T19:48:16.152Z,2.67
2019-03-31T19:50:51.587Z,3.40
2019-03-31T19:53:30.181Z,3.33
2019-03-31T19:56:07.700Z,2.87
2019-03-31T19:58:46.332Z,2.73
2019-03-31T20:01:19.202Z,3.10
2019-03-31T20:04:07.209Z,2.97
2019-03-31T20:06:48.745Z,2.87
2019-03-31T20:09:25.212Z,2.40
2019-03-31T20:11:57.902Z,3.27
2019-03-31T20:14:47.262Z,2.80
2019-03-31T20:17:20.326Z,2.87
2019-03-31T20:19:56.008Z,2.60
2019-03-31T20:22:34.690Z,2.90
2019-03-31T20:25:26.523Z,2.40
2019-03-31T20:28:15.096Z,2.23
2019-03-31T20:31:04.139Z,2.77
2019-03-31T20:33:45.732Z,2.70
2019-03-31T20:36:19.037Z,2.97
2019-03-31T20:39:02.480Z,2.73
2019-03-31T20:41:44.960Z,2.83
2019-03-31T20:44:16.299Z,2.67
2019-03-31T20:46:47.461Z,2.90
2019-03-31T20:49:18.058Z,3.47
2019-03-31T20:51:49.226Z,3.00
2019-03-31T20:54:20.404Z,3.13
2019-03-31T20:56:51.861Z,3.00
2019-03-31T20:59:23.468Z,2.90
2019-03-31T21:01:55.712Z,3.23
2019-03-31T21:04:27.368Z,2.33
2019-03-31T21:06:58.817Z,3.17
2019-03-31T21:09:43.772Z,3.17
2019-03-31T21:12:03.259Z,3.20
2019-03-31T21:14:34.894Z,3.00
2019-03-31T21:17:07.202Z,2.73
2019-03-31T21:19:38.432Z,3.30
2019-03-31T21:22:09.520Z,2.70
2019-03-31T21:24:40.651Z,3.00
2019-03-31T21:27:13.119Z,3.10
2019-03-31T21:29:45.542Z,2.33
2019-03-31T21:32:14.122Z,2.20
2019-03-31T21:34:42.665Z,2.63
2019-03-31T21:37:11.129Z,2.97
2019-03-31T21:39:39.574Z,2.77
2019-03-31T21:42:08.124Z,2.60
2019-03-31T21:44:36.588Z,3.13
2019-03-31T21:47:05.049Z,3.00
2019-03-31T21:49:33.523Z,2.33
2019-03-31T21:52:02.016Z,2.83
2019-03-31T21:54:30.542Z,2.33
2019-03-31T21:56:59.263Z,3.03
2019-03-31T21:59:27.759Z,2.80
2019-03-31T22:01:56.203Z,2.50
2019-03-31T22:04:24.659Z,2.53
2019-03-31T22:06:53.140Z,2.10
2019-03-31T22:09:21.619Z,2.60
2019-03-31T22:11:50.112Z,2.53
2019-03-31T22:14:18.627Z,2.40
2019-03-31T22:16:47.994Z,2.37
2019-03-31T22:19:16.521Z,2.40
2019-03-31T22:21:45.000Z,2.40
2019-03-31T22:24:13.468Z,2.80
2019-03-31T22:26:41.948Z,2.40
2019-03-31T22:29:10.561Z,2.20
2019-03-31T22:31:39.089Z,2.70
2019-03-31T22:34:07.631Z,2.43
2019-03-31T22:36:36.111Z,2.10
2019-03-31T22:39:05.999Z,2.70
2019-03-31T22:41:34.561Z,1.90
2019-03-31T22:44:03.504Z,2.37
2019-03-31T22:46:31.960Z,2.83
2019-03-31T22:49:00.444Z,2.40
2019-03-31T22:51:28.899Z,2.60
2019-03-31T22:53:57.361Z,2.10
2019-03-31T22:56:25.909Z,2.87
2019-03-31T22:58:54.359Z,2.97
2019-03-31T23:01:22.983Z,2.23
2019-03-31T23:03:51.444Z,2.10
2019-03-31T23:06:19.978Z,1.87
2019-03-31T23:08:48.504Z,1.97
2019-03-31T23:11:17.003Z,3.00
2019-03-31T23:13:45.495Z,2.20
2019-03-31T23:16:14.256Z,2.10
2019-03-31T23:18:42.841Z,2.03
2019-03-31T23:21:11.323Z,2.20
2019-03-31T23:23:39.789Z,2.00
2019-03-31T23:26:09.775Z,1.77
2019-03-31T23:28:39.967Z,2.37
2019-03-31T23:31:08.416Z,2.47
2019-03-31T23:33:36.867Z,2.10
2019-03-31T23:36:05.342Z,2.50
2019-03-31T23:38:33.843Z,2.13
2019-03-31T23:41:02.296Z,2.37
2019-03-31T23:43:30.792Z,2.50
2019-03-31T23:45:59.275Z,2.77
2019-03-31T23:48:27.818Z,2.10
2019-03-31T23:50:56.352Z,2.17
2019-03-31T23:53:24.964Z,2.50
2019-03-31T23:55:53.420Z,2.20
2019-03-31T23:58:21.890Z,2.30
